Time;durP1;ratioP1;P1;durP2;ratioP2;P2;SDS_P1;SDS_P2;PMS_P1;PMS_P2;Temp;Humidity;BMP_temperature;BMP_pressure;BME280_temperature;BME280_humidity;BME280_pressure;Samples;Min_cycle;Max_cycle;Signal;HPM_P1;HPM_P2
2024/01/24 00:00:06;;;;;;;22.80;6.18;;;;;;;;;;4978135;28;20414;-70
2024/01/24 00:02:32;;;;;;;24.98;6.30;;;;;;;;;;4990531;28;20042;-70
2024/01/24 00:04:58;;;;;;;27.13;6.05;;;;;;;;;;4970816;28;20133;-70
2024/01/24 00:07:23;;;;;;;27.30;5.32;;;10.50;99.90;;;;;;4970976;28;20125;-70
2024/01/24 00:09:49;;;;;;;25.30;5.40;;;;;;;;;;4986117;28;20161;-69
2024/01/24 00:12:15;;;;;;;32.33;7.25;;;;;;;;;;4977934;28;20125;-70
2024/01/24 00:14:41;;;;;;;19.52;5.85;;;;;;;;;;4983295;28;20642;-70
2024/01/24 00:17:08;;;;;;;33.05;7.60;;;;;;;;;;4984378;28;20622;-70
2024/01/24 00:19:34;;;;;;;21.27;7.03;;;;;;;;;;4989114;28;20053;-69
2024/01/24 00:22:00;;;;;;;19.83;5.35;;;;;;;;;;4983823;28;20128;-69
2024/01/24 00:24:26;;;;;;;31.63;6.45;;;;;;;;;;4984814;28;20126;-69
2024/01/24 00:26:52;;;;;;;25.05;6.75;;;;;;;;;;4966479;28;20075;-70
2024/01/24 00:29:18;;;;;;;28.52;6.65;;;;;;;;;;4986909;28;20482;-69
2024/01/24 00:31:47;;;;;;;24.63;6.72;;;;;;;;;;4968077;28;20044;-70
2024/01/24 00:34:13;;;;;;;18.65;5.03;;;;;;;;;;4981876;28;20126;-69
2024/01/24 00:36:39;;;;;;;24.08;5.72;;;;;;;;;;4989687;28;20046;-70
2024/01/24 00:39:07;;;;;;;26.90;6.10;;;;;;;;;;5057973;23;20050;-63
2024/01/24 00:41:33;;;;;;;23.95;6.35;;;;;;;;;;4982868;28;20053;-63
2024/01/24 00:43:59;;;;;;;26.00;5.97;;;;;;;;;;4968326;28;20042;-63
2024/01/24 00:46:25;;;;;;;18.88;4.60;;;;;;;;;;4969661;28;20057;-63
2024/01/24 00:48:51;;;;;;;28.65;5.82;;;;;;;;;;4969846;28;20102;-63
2024/01/24 00:51:17;;;;;;;28.70;6.72;;;10.40;99.90;;;;;;4966143;28;20045;-63
2024/01/24 00:53:52;;;;;;;24.55;5.10;;;;;;;;;;4970434;28;20086;-63
2024/01/24 00:56:18;;;;;;;31.65;6.45;;;;;;;;;;4977378;28;20038;-63
2024/01/24 00:58:44;;;;;;;31.80;6.53;;;;;;;;;;4969126;28;20042;-64
2024/01/24 01:01:10;;;;;;;24.40;5.80;;;10.60;99.90;;;;;;4966780;28;20540;-63
2024/01/24 01:03:36;;;;;;;30.00;5.85;;;;;;;;;;4968557;28;20126;-63
2024/01/24 01:06:04;;;;;;;28.50;5.30;;;10.60;99.90;;;;;;4967401;28;20473;-63
2024/01/24 01:08:30;;;;;;;27.40;6.38;;;;;;;;;;4969292;28;20049;-63
2024/01/24 01:10:56;;;;;;;27.60;7.10;;;;;;;;;;4967884;28;20126;-64
2024/01/24 01:13:22;;;;;;;21.00;5.13;;;;;;;;;;4968710;28;20498;-63
2024/01/24 01:15:48;;;;;;;25.85;6.47;;;;;;;;;;4968019;28;20050;-63
2024/01/24 01:18:14;;;;;;;21.13;4.50;;;;;;;;;;4968621;28;20043;-64
2024/01/24 01:20:40;;;;;;;23.58;4.80;;;;;;;;;;4968018;28;20076;-64
2024/01/24 01:23:06;;;;;;;19.48;3.80;;;;;;;;;;4968410;28;20477;-64
2024/01/24 01:25:32;;;;;;;18.60;5.00;;;10.80;99.90;;;;;;4968623;28;20039;-63
2024/01/24 01:27:58;;;;;;;20.65;4.43;;;;;;;;;;4969176;28;20443;-63
2024/01/24 01:30:24;;;;;;;16.48;4.63;;;;;;;;;;4968270;28;20518;-64
2024/01/24 01:32:50;;;;;;;22.83;4.47;;;11.00;99.90;;;;;;4967245;28;20486;-63
2024/01/24 01:35:16;;;;;;;17.90;4.63;;;;;;;;;;4967242;28;20130;-63
2024/01/24 01:37:42;;;;;;;26.05;4.95;;;;;;;;;;4969057;28;20074;-63
2024/01/24 01:40:09;;;;;;;19.67;4.35;;;;;;;;;;4982298;28;20421;-63
2024/01/24 01:42:36;;;;;;;23.83;4.88;;;;;;;;;;4968112;28;20066;-64
2024/01/24 01:45:03;;;;;;;14.10;3.28;;;;;;;;;;4982601;28;20058;-64
2024/01/24 01:47:30;;;;;;;16.35;3.70;;;;;;;;;;4967710;28;20392;-63
2024/01/24 01:49:56;;;;;;;21.25;4.93;;;;;;;;;;4967582;28;20070;-64
2024/01/24 01:52:24;;;;;;;18.10;3.80;;;;;;;;;;4967132;28;20063;-64
2024/01/24 01:54:51;;;;;;;19.13;4.32;;;;;;;;;;4967634;28;20533;-64
2024/01/24 01:57:17;;;;;;;22.65;4.63;;;;;;;;;;4968549;28;20062;-63
2024/01/24 01:59:45;;;;;;;17.63;4.55;;;;;;;;;;4971310;28;20030;-64
2024/01/24 02:02:11;;;;;;;14.25;4.57;;;;;;;;;;4970646;28;20542;-63
2024/01/24 02:04:37;;;;;;;12.30;3.42;;;;;;;;;;4971157;28;20049;-63
2024/01/24 02:07:04;;;;;;;15.93;4.50;;;;;;;;;;4972487;28;20042;-64
2024/01/24 02:09:30;;;;;;;17.10;3.60;;;;;;;;;;4969317;28;20043;-63
2024/01/24 02:11:56;;;;;;;13.50;3.60;;;;;;;;;;4970959;28;20038;-64
2024/01/24 02:14:21;;;;;;;13.43;3.70;;;11.00;99.90;;;;;;4971464;28;20045;-63
2024/01/24 02:16:47;;;;;;;15.75;4.05;;;;;;;;;;4972000;28;20122;-62
2024/01/24 02:19:13;;;;;;;24.20;4.57;;;;;;;;;;4972212;28;20098;-63
2024/01/24 02:21:39;;;;;;;18.35;4.47;;;;;;;;;;4970743;28;20043;-63
2024/01/24 02:24:12;;;;;;;18.85;4.47;;;;;;;;;;4970270;28;20407;-63
2024/01/24 02:26:38;;;;;;;16.50;4.10;;;10.90;99.90;;;;;;4968894;28;20050;-63
2024/01/24 02:29:04;;;;;;;21.15;4.93;;;;;;;;;;4970780;28;20042;-63
2024/01/24 02:31:31;;;;;;;18.92;3.92;;;;;;;;;;4981443;28;20482;-63
2024/01/24 02:33:56;;;;;;;21.65;4.95;;;10.90;90.10;;;;;;4969216;28;20410;-63
2024/01/24 02:36:22;;;;;;;14.90;4.00;;;;;;;;;;4970085;28;20058;-64
2024/01/24 02:38:48;;;;;;;16.42;4.10;;;;;;;;;;4965929;28;20518;-63
2024/01/24 02:41:17;;;;;;;15.32;3.28;;;;;;;;;;4969295;28;20046;-64
2024/01/24 02:43:43;;;;;;;16.92;4.95;;;;;;;;;;4969275;28;20058;-63
2024/01/24 02:46:09;;;;;;;14.13;4.38;;;;;;;;;;4963858;28;20046;-64
2024/01/24 02:48:35;;;;;;;23.15;4.60;;;10.80;1.00;;;;;;4968633;28;20048;-64
2024/01/24 02:51:01;;;;;;;21.27;4.40;;;10.60;1.00;;;;;;4968670;28;20030;-63
2024/01/24 02:53:26;;;;;;;15.57;3.58;;;10.50;1.00;;;;;;4971131;28;20042;-63
2024/01/24 02:55:52;;;;;;;19.27;4.40;;;;;;;;;;4972234;28;20047;-64
2024/01/24 02:58:21;;;;;;;16.02;4.65;;;;;;;;;;4969911;28;20043;-63
2024/01/24 03:00:47;;;;;;;22.42;5.43;;;;;;;;;;4971657;28;20638;-63
2024/01/24 03:03:13;;;;;;;14.95;4.22;;;;;;;;;;4970577;28;20164;-64
2024/01/24 03:05:39;;;;;;;22.02;4.70;;;10.60;99.90;;;;;;4971064;28;20211;-64
2024/01/24 03:08:05;;;;;;;26.35;5.63;;;;;;;;;;4971106;28;20039;-63
2024/01/24 03:10:31;;;;;;;17.33;4.47;;;;;;;;;;4971034;28;20035;-63
2024/01/24 03:12:57;;;;;;;17.77;5.10;;;;;;;;;;4970688;28;21221;-63
2024/01/24 03:15:25;;;;;;;17.08;4.00;;;;;;;;;;4970860;28;20058;-63
2024/01/24 03:17:51;;;;;;;21.08;5.13;;;;;;;;;;4971690;28;20042;-63
2024/01/24 03:20:17;;;;;;;23.80;4.53;;;;;;;;;;4969429;28;20494;-62
2024/01/24 03:22:43;;;;;;;23.33;4.82;;;10.50;99.90;;;;;;4971304;28;20042;-64
2024/01/24 03:25:11;;;;;;;23.70;4.90;;;10.30;99.90;;;;;;4970967;28;20031;-64
2024/01/24 03:27:38;;;;;;;18.08;5.45;;;;;;;;;;4969770;28;20121;-64
2024/01/24 03:30:04;;;;;;;19.95;4.55;;;;;;;;;;4970545;28;20035;-63
2024/01/24 03:32:30;;;;;;;20.20;4.70;;;;;;;;;;4970011;28;20038;-63
2024/01/24 03:34:57;;;;;;;17.20;4.57;;;;;;;;;;4971282;28;20406;-63
2024/01/24 03:37:23;;;;;;;19.48;5.25;;;;;;;;;;4969165;28;20070;-63
2024/01/24 03:39:49;;;;;;;19.27;4.28;;;;;;;;;;4971363;28;20035;-63
2024/01/24 03:42:14;;;;;;;18.90;5.30;;;10.70;99.90;;;;;;4970751;28;20042;-64
2024/01/24 03:44:40;;;;;;;16.13;4.13;;;10.70;99.90;;;;;;4970761;28;20418;-64
2024/01/24 03:47:06;;;;;;;19.20;3.92;;;;;;;;;;4969706;28;21033;-64
2024/01/24 03:49:32;;;;;;;23.88;4.95;;;;;;;;;;4970275;28;20047;-63
2024/01/24 03:51:59;;;;;;;19.23;4.40;;;;;;;;;;4967848;28;20470;-64
2024/01/24 03:54:25;;;;;;;19.90;4.75;;;;;;;;;;4970523;28;20042;-64
2024/01/24 03:56:51;;;;;;;18.67;5.03;;;;;;;;;;4970749;28;20046;-64
2024/01/24 03:59:18;;;;;;;19.95;6.25;;;;;;;;;;4969981;28;20467;-63
2024/01/24 04:01:44;;;;;;;22.25;6.30;;;;;;;;;;4967115;28;20498;-63
2024/01/24 04:04:10;;;;;;;18.58;5.18;;;;;;;;;;4970715;28;20039;-63
2024/01/24 04:06:39;;;;;;;20.15;4.70;;;;;;;;;;4969685;28;20050;-63
2024/01/24 04:09:05;;;;;;;23.08;5.43;;;;;;;;;;4969993;28;20039;-63
2024/01/24 04:11:31;;;;;;;24.27;5.47;;;;;;;;;;4969638;28;20054;-63
2024/01/24 04:13:57;;;;;;;22.13;6.15;;;;;;;;;;4970246;28;20035;-63
2024/01/24 04:16:23;;;;;;;30.80;5.70;;;;;;;;;;4969482;28;20050;-63
2024/01/24 04:18:50;;;;;;;22.40;5.15;;;;;;;;;;4969352;28;20039;-63
2024/01/24 04:21:16;;;;;;;26.60;6.75;;;;;;;;;;4969455;28;20562;-62
2024/01/24 04:23:42;;;;;;;23.42;5.80;;;;;;;;;;4968899;28;20477;-63
2024/01/24 04:26:09;;;;;;;25.95;6.25;;;;;;;;;;4969320;28;20449;-63
2024/01/24 04:28:35;;;;;;;33.72;5.60;;;;;;;;;;4969713;28;20137;-63
2024/01/24 04:31:01;;;;;;;26.63;6.57;;;;;;;;;;4969399;28;20093;-63
2024/01/24 04:33:27;;;;;;;26.02;5.80;;;;;;;;;;4967877;28;20056;-63
2024/01/24 04:35:55;;;;;;;33.80;7.40;;;;;;;;;;4970463;28;20114;-63
2024/01/24 04:38:22;;;;;;;23.13;6.88;;;;;;;;;;4969748;28;20053;-63
2024/01/24 04:40:48;;;;;;;37.00;9.07;;;;;;;;;;4968397;28;20066;-63
2024/01/24 04:43:14;;;;;;;27.85;7.93;;;;;;;;;;4969870;28;20034;-63
2024/01/24 04:45:41;;;;;;;22.15;5.63;;;;;;;;;;4969229;28;20046;-62
2024/01/24 04:48:07;;;;;;;30.83;7.90;;;;;;;;;;4970506;28;21098;-63
2024/01/24 04:50:33;;;;;;;35.03;6.97;;;;;;;;;;4968756;28;20515;-63
2024/01/24 04:52:59;;;;;;;22.48;6.90;;;;;;;;;;4970553;28;20065;-63
2024/01/24 04:55:25;;;;;;;24.90;6.80;;;;;;;;;;4968600;28;20035;-62
2024/01/24 04:57:51;;;;;;;31.45;7.57;;;;;;;;;;4969402;28;20066;-63
2024/01/24 05:00:17;;;;;;;28.85;7.03;;;;;;;;;;4967137;28;20085;-63
2024/01/24 05:02:43;;;;;;;28.17;7.05;;;;;;;;;;4968243;28;20039;-62
2024/01/24 05:05:10;;;;;;;31.83;7.68;;;;;;;;;;4967171;28;20038;-62
2024/01/24 05:07:36;;;;;;;30.20;8.20;;;;;;;;;;4968157;28;20035;-63
2024/01/24 05:10:06;;;;;;;28.67;6.97;;;;;;;;;;4970985;28;20043;-62
2024/01/24 05:12:32;;;;;;;33.92;8.57;;;;;;;;;;4967355;28;20126;-62
2024/01/24 05:14:58;;;;;;;38.38;8.43;;;10.20;99.90;;;;;;4968720;28;20051;-62
2024/01/24 05:17:23;;;;;;;32.85;7.45;;;10.10;99.90;;;;;;4970376;28;20439;-62
2024/01/24 05:19:49;;;;;;;37.85;8.25;;;;;;;;;;4969112;28;20086;-63
2024/01/24 05:22:16;;;;;;;40.78;7.72;;;;;;;;;;4969085;28;20077;-63
2024/01/24 05:24:46;;;;;;;33.17;8.63;;;;;;;;;;4968400;28;20043;-63
2024/01/24 05:27:12;;;;;;;33.45;8.40;;;10.10;99.90;;;;;;4965630;28;20047;-62
2024/01/24 05:29:39;;;;;;;32.58;8.82;;;;;;;;;;4968825;28;20035;-61
2024/01/24 05:32:05;;;;;;;37.80;8.38;;;;;;;;;;4969064;28;20470;-62
2024/01/24 05:34:31;;;;;;;37.20;10.32;;;9.80;99.90;;;;;;4986150;28;20069;-62
2024/01/24 05:36:57;;;;;;;34.47;7.68;;;;;;;;;;4973059;28;20499;-62
2024/01/24 05:39:23;;;;;;;35.72;8.05;;;;;;;;;;4972951;28;20031;-62
2024/01/24 05:41:49;;;;;;;37.28;8.52;;;;;;;;;;4970581;28;20050;-62
2024/01/24 05:44:15;;;;;;;23.65;7.13;;;;;;;;;;4972388;28;20047;-62
2024/01/24 05:46:41;;;;;;;38.78;8.00;;;;;;;;;;4973034;28;20053;-62
2024/01/24 05:49:07;;;;;;;30.25;8.63;;;;;;;;;;4973540;28;20118;-61
2024/01/24 05:51:33;;;;;;;35.90;7.50;;;;;;;;;;4966909;28;20518;-63
2024/01/24 05:53:59;;;;;;;31.95;7.93;;;;;;;;;;4971339;28;20175;-63
2024/01/24 05:56:25;;;;;;;37.35;10.18;;;;;;;;;;4972394;28;20080;-63
2024/01/24 05:58:51;;;;;;;30.25;8.05;;;;;;;;;;4970889;28;20042;-63
2024/01/24 06:01:17;;;;;;;26.23;9.30;;;;;;;;;;4968735;28;20047;-64
2024/01/24 06:03:43;;;;;;;37.03;9.02;;;;;;;;;;4969391;28;20043;-63
2024/01/24 06:06:09;;;;;;;32.80;7.03;;;;;;;;;;4969820;28;20042;-64
2024/01/24 06:08:36;;;;;;;38.15;10.00;;;;;;;;;;4966414;28;20070;-63
2024/01/24 06:11:03;;;;;;;36.92;7.53;;;;;;;;;;4968420;28;20561;-64
2024/01/24 06:13:28;;;;;;;36.42;8.70;;;9.60;43.50;;;;;;4970591;28;20027;-64
2024/01/24 06:15:54;;;;;;;35.53;9.88;;;;;;;;;;4969788;28;20090;-64
2024/01/24 06:18:21;;;;;;;41.75;9.43;;;;;;;;;;4962498;28;20043;-64
2024/01/24 06:20:47;;;;;;;34.20;9.27;;;;;;;;;;4964683;28;20093;-64
2024/01/24 06:23:14;;;;;;;33.30;11.05;;;;;;;;;;4970912;28;20038;-64
2024/01/24 06:25:39;;;;;;;37.90;9.48;;;9.30;46.10;;;;;;4967725;28;20050;-65
2024/01/24 06:28:05;;;;;;;33.38;8.02;;;;;;;;;;4968280;28;20208;-64
2024/01/24 06:30:31;;;;;;;38.83;9.63;;;;;;;;;;4971737;28;20039;-63
2024/01/24 06:32:58;;;;;;;38.40;8.15;;;;;;;;;;4968331;28;20524;-64
2024/01/24 06:35:24;;;;;;;39.90;8.73;;;;;;;;;;4970341;28;20035;-63
2024/01/24 06:37:51;;;;;;;32.72;8.27;;;9.50;1.00;;;;;;4967242;28;20051;-63
2024/01/24 06:40:19;;;;;;;30.23;9.52;;;;;;;;;;4972564;28;20081;-64
2024/01/24 06:42:45;;;;;;;26.80;7.13;;;;;;;;;;4972113;28;20099;-64
2024/01/24 06:45:12;;;;;;;32.75;8.20;;;;;;;;;;4971168;28;20049;-63
2024/01/24 06:47:38;;;;;;;40.45;8.63;;;;;;;;;;4972097;28;20153;-64
2024/01/24 06:50:06;;;;;;;33.63;7.72;;;;;;;;;;4971907;28;20570;-64
2024/01/24 06:52:33;;;;;;;35.50;7.75;;;;;;;;;;4972342;28;20043;-64
2024/01/24 06:54:59;;;;;;;32.50;8.82;;;;;;;;;;4970262;28;20061;-64
2024/01/24 06:57:25;;;;;;;34.30;8.65;;;;;;;;;;4971587;28;20526;-64
2024/01/24 06:59:51;;;;;;;36.08;8.70;;;;;;;;;;4970369;28;20050;-64
2024/01/24 07:02:17;;;;;;;32.13;8.27;;;;;;;;;;4970454;28;20125;-64
2024/01/24 07:04:43;;;;;;;35.45;8.70;;;;;;;;;;4971444;28;20170;-63
2024/01/24 07:07:09;;;;;;;33.55;7.35;;;;;;;;;;4971516;28;20038;-64
2024/01/24 07:09:36;;;;;;;33.58;7.90;;;9.50;1.00;;;;;;4970758;28;20046;-64
2024/01/24 07:12:03;;;;;;;36.28;9.05;;;;;;;;;;4971992;28;20038;-64
2024/01/24 07:14:29;;;;;;;27.95;8.70;;;;;;;;;;4945691;28;20046;-64
2024/01/24 07:16:55;;;;;;;30.17;7.97;;;;;;;;;;4912847;28;20058;-64
2024/01/24 07:19:21;;;;;;;32.80;8.48;;;;;;;;;;4954537;28;20133;-64
2024/01/24 07:21:47;;;;;;;35.10;8.55;;;;;;;;;;4954911;28;20043;-64
2024/01/24 07:24:13;;;;;;;38.58;8.45;;;;;;;;;;4956380;28;20035;-64
2024/01/24 07:26:40;;;;;;;26.77;7.15;;;;;;;;;;4954843;28;20138;-64
2024/01/24 07:29:06;;;;;;;28.17;7.30;;;;;;;;;;4951665;28;20046;-64
2024/01/24 07:31:32;;;;;;;40.10;9.52;;;;;;;;;;4949299;28;20050;-65
2024/01/24 07:33:58;;;;;;;30.80;7.20;;;9.40;1.00;;;;;;4949790;28;20047;-64
2024/01/24 07:36:24;;;;;;;27.15;6.80;;;;;;;;;;4949949;28;20031;-63
2024/01/24 07:38:51;;;;;;;40.25;8.40;;;;;;;;;;4946464;28;20498;-64
2024/01/24 07:41:17;;;;;;;29.20;7.35;;;;;;;;;;4947126;28;20054;-64
2024/01/24 07:43:43;;;;;;;44.67;11.77;;;;;;;;;;4946383;28;20043;-64
2024/01/24 07:46:09;;;;;;;33.25;9.57;;;;;;;;;;4952501;28;20072;-63
2024/01/24 07:48:36;;;;;;;27.10;6.45;;;;;;;;;;4956162;28;20146;-64
2024/01/24 07:51:02;;;;;;;38.28;8.75;;;9.00;1.00;;;;;;4954114;28;20050;-65
2024/01/24 07:53:27;;;;;;;39.40;9.02;;;9.30;1.00;;;;;;4955574;28;20056;-64
2024/01/24 07:55:55;;;;;;;29.17;8.05;;;;;;;;;;4948906;28;20048;-64
2024/01/24 07:58:21;;;;;;;35.85;10.68;;;;;;;;;;4951354;28;20101;-64
2024/01/24 08:00:47;;;;;;;42.95;8.85;;;;;;;;;;4954172;28;20046;-64
2024/01/24 08:03:13;;;;;;;28.55;6.70;;;;;;;;;;4954641;28;20083;-64
2024/01/24 08:05:39;;;;;;;34.83;8.38;;;;;;;;;;4951451;28;20043;-64
2024/01/24 08:08:05;;;;;;;32.45;7.80;;;;;;;;;;4959923;28;20057;-64
2024/01/24 08:10:31;;;;;;;33.15;7.50;;;;;;;;;;4954485;28;20038;-64
2024/01/24 08:12:58;;;;;;;33.60;10.43;;;;;;;;;;4956836;28;20406;-64
2024/01/24 08:15:24;;;;;;;24.38;6.88;;;;;;;;;;4955247;28;20061;-64
2024/01/24 08:17:49;;;;;;;37.08;9.82;;;9.20;1.00;;;;;;4947375;28;20499;-64
2024/01/24 08:20:19;;;;;;;34.45;8.43;;;;;;;;;;4951365;28;20046;-64
2024/01/24 08:22:45;;;;;;;32.22;8.73;;;;;;;;;;4949926;28;20176;-63
2024/01/24 08:25:11;;;;;;;33.63;7.88;;;;;;;;;;4956838;28;20518;-64
2024/01/24 08:27:37;;;;;;;26.25;6.68;;;;;;;;;;4955639;28;20046;-64
2024/01/24 08:30:03;;;;;;;24.15;7.70;;;9.30;1.00;;;;;;4955210;28;20371;-64
2024/01/24 08:32:29;;;;;;;32.40;9.18;;;;;;;;;;4953084;28;20387;-64
2024/01/24 08:34:55;;;;;;;42.13;11.40;;;;;;;;;;4952473;28;20463;-63
2024/01/24 08:37:21;;;;;;;40.45;8.60;;;;;;;;;;4958367;28;20122;-64
2024/01/24 08:39:48;;;;;;;31.27;7.80;;;;;;;;;;4955575;28;20109;-64
2024/01/24 08:42:14;;;;;;;32.60;7.93;;;;;;;;;;4956262;28;20035;-64
2024/01/24 08:44:40;;;;;;;31.27;9.48;;;;;;;;;;4953559;28;20579;-64
2024/01/24 08:47:06;;;;;;;35.20;8.45;;;;;;;;;;4957439;28;20046;-64
2024/01/24 08:49:32;;;;;;;26.60;6.57;;;;;;;;;;4955948;28;20063;-63
2024/01/24 08:51:58;;;;;;;39.70;9.93;;;;;;;;;;4953679;28;20195;-64
2024/01/24 08:54:24;;;;;;;34.53;8.27;;;;;;;;;;4954634;28;20066;-64
2024/01/24 08:56:50;;;;;;;35.75;7.93;;;;;;;;;;4950827;28;20050;-64
2024/01/24 08:59:16;;;;;;;41.88;9.15;;;;;;;;;;4955983;28;20045;-64
2024/01/24 09:01:42;;;;;;;28.55;6.85;;;;;;;;;;4949641;28;20051;-64
2024/01/24 09:04:08;;;;;;;28.05;6.93;;;;;;;;;;4955331;28;20402;-64
2024/01/24 09:06:34;;;;;;;35.45;8.02;;;;;;;;;;4953348;28;20050;-64
2024/01/24 09:09:00;;;;;;;39.42;7.30;;;;;;;;;;4955876;28;20250;-64
2024/01/24 09:11:26;;;;;;;31.83;7.57;;;9.40;99.90;;;;;;4955639;28;20047;-64
2024/01/24 09:13:52;;;;;;;35.38;8.93;;;;;;;;;;4950504;28;20034;-64
2024/01/24 09:16:18;;;;;;;26.90;7.10;;;;;;;;;;4953642;28;20030;-64
2024/01/24 09:18:44;;;;;;;35.70;8.13;;;;;;;;;;4950698;28;20042;-63
2024/01/24 09:21:13;;;;;;;34.70;8.35;;;;;;;;;;4953083;28;20039;-64
2024/01/24 09:23:39;;;;;;;28.38;7.38;;;;;;;;;;4956717;28;20419;-64
2024/01/24 09:26:05;;;;;;;35.70;8.30;;;;;;;;;;4956774;28;20518;-63
2024/01/24 09:28:31;;;;;;;34.13;8.77;;;;;;;;;;4952358;28;20054;-64
2024/01/24 09:30:57;;;;;;;27.75;8.10;;;;;;;;;;4953765;28;20074;-64
2024/01/24 09:33:23;;;;;;;28.17;7.35;;;;;;;;;;4953215;28;20506;-64
2024/01/24 09:35:49;;;;;;;33.83;7.25;;;;;;;;;;4952723;28;20096;-64
2024/01/24 09:38:16;;;;;;;29.85;8.68;;;;;;;;;;4952628;28;20039;-64
2024/01/24 09:40:42;;;;;;;27.55;7.50;;;;;;;;;;4952845;28;20130;-64
2024/01/24 09:43:09;;;;;;;29.90;6.93;;;;;;;;;;4951057;28;20043;-64
2024/01/24 09:45:39;;;;;;;21.60;7.13;;;;;;;;;;4950602;28;20495;-64
2024/01/24 09:48:08;;;;;;;24.92;8.27;;;;;;;;;;4952053;28;20055;-64
2024/01/24 09:50:34;;;;;;;30.48;7.45;;;;;;;;;;4951887;28;20058;-64
2024/01/24 09:53:03;;;;;;;32.65;7.30;;;;;;;;;;4952515;28;20051;-64
2024/01/24 09:55:31;;;;;;;31.75;7.65;;;;;;;;;;4950144;28;20817;-64
2024/01/24 09:57:57;;;;;;;36.90;7.70;;;;;;;;;;4952275;28;20395;-64
2024/01/24 10:00:23;;;;;;;31.52;7.43;;;;;;;;;;4951122;28;20038;-64
2024/01/24 10:02:49;;;;;;;39.70;7.65;;;;;;;;;;4950742;28;20052;-64
2024/01/24 10:05:19;;;;;;;28.42;7.05;;;;;;;;;;4951974;28;20039;-64
2024/01/24 10:07:46;;;;;;;37.90;8.60;;;;;;;;;;4953153;28;20415;-64
2024/01/24 10:10:12;;;;;;;32.92;8.60;;;;;;;;;;4952907;28;20047;-64
2024/01/24 10:12:39;;;;;;;36.35;8.40;;;;;;;;;;4951304;28;20047;-64
2024/01/24 10:15:05;;;;;;;31.40;7.88;;;;;;;;;;4957009;28;20058;-64
2024/01/24 10:17:31;;;;;;;25.92;6.93;;;;;;;;;;4957305;28;20522;-64
2024/01/24 10:19:58;;;;;;;29.10;7.07;;;;;;;;;;4953455;28;20585;-64
2024/01/24 10:22:24;;;;;;;24.67;6.88;;;;;;;;;;4958198;28;20058;-65
2024/01/24 10:24:50;;;;;;;37.03;8.30;;;;;;;;;;4946532;28;20030;-65
2024/01/24 10:27:16;;;;;;;28.98;8.20;;;;;;;;;;4955364;28;20443;-64
2024/01/24 10:29:46;;;;;;;28.85;9.63;;;;;;;;;;4960380;28;20514;-64
2024/01/24 10:32:13;;;;;;;36.13;6.75;;;;;;;;;;4954795;28;20038;-65
2024/01/24 10:34:39;;;;;;;25.58;7.82;;;;;;;;;;4959352;28;20054;-64
2024/01/24 10:37:08;;;;;;;21.35;6.63;;;;;;;;;;4955014;28;20039;-64
2024/01/24 10:39:35;;;;;;;31.55;7.95;;;;;;;;;;4959131;28;20038;-64
2024/01/24 10:42:08;;;;;;;33.03;8.32;;;;;;;;;;4952336;28;20065;-64
2024/01/24 10:44:35;;;;;;;27.90;6.65;;;;;;;;;;4958478;28;20141;-64
2024/01/24 10:47:02;;;;;;;26.30;6.70;;;;;;;;;;4953804;28;20059;-64
2024/01/24 10:49:29;;;;;;;32.80;7.38;;;;;;;;;;4951311;28;20502;-65
2024/01/24 10:51:56;;;;;;;27.55;6.95;;;;;;;;;;4953121;28;20055;-64
2024/01/24 10:54:22;;;;;;;29.48;6.97;;;;;;;;;;4959218;28;20396;-65
2024/01/24 10:56:50;;;;;;;33.63;6.88;;;;;;;;;;4950920;28;20122;-64
2024/01/24 10:59:17;;;;;;;22.90;6.07;;;;;;;;;;4954661;28;20054;-64
2024/01/24 11:01:43;;;;;;;25.98;7.05;;;;;;;;;;4953176;28;20051;-64
2024/01/24 11:04:10;;;;;;;22.10;6.05;;;;;;;;;;4952292;28;20050;-65
2024/01/24 11:06:40;;;;;;;21.17;5.45;;;;;;;;;;4956532;28;20047;-64
2024/01/24 11:09:20;;;;;;;36.63;7.80;;;;;;;;;;4957598;28;20483;-64
2024/01/24 11:11:47;;;;;;;26.25;6.15;;;;;;;;;;4959578;28;20078;-64
2024/01/24 11:14:13;;;;;;;22.15;6.25;;;;;;;;;;4959521;28;20050;-64
2024/01/24 11:16:39;;;;;;;22.98;6.00;;;;;;;;;;4955793;28;20101;-65
2024/01/24 11:19:20;;;;;;;25.20;7.63;;;;;;;;;;4956703;28;20520;-64
2024/01/24 11:21:46;;;;;;;28.35;8.07;;;10.50;99.90;;;;;;4953026;28;20050;-64
2024/01/24 11:24:12;;;;;;;32.13;7.15;;;;;;;;;;4952286;28;20114;-64
2024/01/24 11:26:48;;;;;;;21.75;5.53;;;;;;;;;;4954135;28;20047;-64
2024/01/24 11:29:14;;;;;;;24.65;6.78;;;;;;;;;;4953625;28;20043;-64
2024/01/24 11:31:42;;;;;;;25.40;6.20;;;;;;;;;;4953252;28;20047;-64
2024/01/24 11:34:12;;;;;;;26.52;6.40;;;;;;;;;;4956653;28;20047;-64
2024/01/24 11:36:44;;;;;;;25.70;7.90;;;;;;;;;;4953773;28;20039;-64
2024/01/24 11:39:30;;;;;;;25.27;6.18;;;;;;;;;;4958274;28;20038;-64
2024/01/24 11:42:16;;;;;;;28.30;7.72;;;;;;;;;;4954004;28;20107;-64
2024/01/24 11:44:42;;;;;;;29.85;6.93;;;;;;;;;;4958711;28;20041;-64
2024/01/24 11:47:08;;;;;;;26.58;7.72;;;;;;;;;;4956158;28;20043;-64
2024/01/24 11:49:34;;;;;;;21.13;6.65;;;;;;;;;;4959109;28;20047;-65
2024/01/24 11:52:04;;;;;;;29.20;6.28;;;;;;;;;;4955205;28;20138;-65
2024/01/24 11:54:30;;;;;;;27.80;6.25;;;;;;;;;;4952637;28;20059;-64
2024/01/24 11:56:58;;;;;;;21.40;6.13;;;;;;;;;;4954084;28;20055;-64
2024/01/24 11:59:24;;;;;;;26.48;7.15;;;;;;;;;;4973796;28;20719;-65
2024/01/24 12:01:49;;;;;;;27.13;6.55;;;10.80;99.90;;;;;;4956833;28;20058;-64
2024/01/24 12:04:16;;;;;;;18.42;6.38;;;;;;;;;;4952410;28;20126;-64
2024/01/24 12:06:42;;;;;;;24.77;5.80;;;;;;;;;;4976593;28;20043;-64
2024/01/24 12:09:11;;;;;;;27.40;5.50;;;;;;;;;;4953602;28;20051;-65
2024/01/24 12:11:37;;;;;;;32.53;7.15;;;;;;;;;;4952956;28;20122;-64
2024/01/24 12:14:03;;;;;;;18.77;4.88;;;;;;;;;;4955634;28;20134;-64
2024/01/24 12:16:30;;;;;;;29.30;6.72;;;;;;;;;;4972333;28;20039;-65
2024/01/24 12:18:56;;;;;;;25.17;5.60;;;;;;;;;;4951796;28;20059;-65
2024/01/24 12:21:22;;;;;;;30.13;7.55;;;;;;;;;;4951257;28;20121;-65
2024/01/24 12:23:48;;;;;;;24.63;6.38;;;;;;;;;;4954942;28;20039;-64
2024/01/24 12:26:17;;;;;;;26.02;6.25;;;;;;;;;;4955449;28;20053;-65
2024/01/24 12:28:43;;;;;;;28.55;7.18;;;;;;;;;;4955088;28;20047;-65
2024/01/24 12:31:09;;;;;;;28.38;6.93;;;;;;;;;;4952864;28;20045;-64
2024/01/24 12:33:35;;;;;;;26.63;6.50;;;;;;;;;;4953605;28;20039;-64
2024/01/24 12:36:05;;;;;;;36.05;6.15;;;;;;;;;;4955310;28;20057;-64
2024/01/24 12:38:31;;;;;;;28.45;7.25;;;;;;;;;;4942217;28;20142;-65
2024/01/24 12:40:57;;;;;;;25.27;7.38;;;;;;;;;;4950517;28;20484;-64
2024/01/24 12:43:23;;;;;;;22.15;6.32;;;;;;;;;;4953206;28;20134;-65
2024/01/24 12:45:49;;;;;;;28.77;6.55;;;;;;;;;;4950782;28;20130;-64
2024/01/24 12:48:15;;;;;;;25.88;6.47;;;;;;;;;;4970924;28;20049;-64
2024/01/24 12:50:41;;;;;;;30.85;7.40;;;;;;;;;;4950433;28;20080;-64
2024/01/24 12:53:07;;;;;;;24.25;6.40;;;;;;;;;;4952475;28;20455;-65
2024/01/24 12:55:33;;;;;;;35.63;8.48;;;;;;;;;;4953231;28;20047;-64
2024/01/24 12:57:59;;;;;;;25.90;6.70;;;;;;;;;;4943113;28;20554;-64
2024/01/24 13:00:25;;;;;;;26.58;7.07;;;;;;;;;;4948969;28;20055;-64
2024/01/24 13:02:52;;;;;;;32.97;6.38;;;;;;;;;;4947895;28;20054;-65
2024/01/24 13:05:18;;;;;;;30.23;7.10;;;12.20;99.90;;;;;;4949906;28;20054;-64
2024/01/24 13:07:44;;;;;;;29.25;5.60;;;;;;;;;;4951596;28;20499;-64
2024/01/24 13:10:12;;;;;;;25.27;7.85;;;;;;;;;;4953738;28;20039;-65
2024/01/24 13:12:39;;;;;;;29.17;7.45;;;;;;;;;;4955472;28;20043;-64
2024/01/24 13:15:06;;;;;;;26.60;7.50;;;;;;;;;;4956575;28;20050;-66
2024/01/24 13:17:33;;;;;;;27.17;6.22;;;;;;;;;;4950665;28;20068;-64
2024/01/24 13:19:59;;;;;;;25.50;6.13;;;;;;;;;;4951822;28;20054;-64
2024/01/24 13:22:26;;;;;;;30.25;7.18;;;;;;;;;;4955153;28;20084;-64
2024/01/24 13:24:52;;;;;;;28.00;7.63;;;;;;;;;;4958147;28;20047;-65
2024/01/24 13:27:18;;;;;;;28.00;7.70;;;11.10;99.90;;;;;;4954648;28;20124;-64
2024/01/24 13:29:44;;;;;;;28.88;7.00;;;;;;;;;;4955851;28;20130;-64
2024/01/24 13:32:10;;;;;;;24.58;6.43;;;;;;;;;;4957353;28;20113;-64
2024/01/24 13:34:36;;;;;;;28.30;6.82;;;;;;;;;;4955484;28;20153;-65
2024/01/24 13:37:02;;;;;;;31.05;8.20;;;;;;;;;;4959195;28;20046;-64
2024/01/24 13:39:28;;;;;;;25.67;7.28;;;;;;;;;;4953960;28;20139;-65
2024/01/24 13:41:54;;;;;;;32.15;10.50;;;;;;;;;;4950476;28;20141;-64
2024/01/24 13:44:20;;;;;;;28.67;7.25;;;;;;;;;;4955733;28;20495;-64
2024/01/24 13:46:46;;;;;;;41.17;8.25;;;10.40;99.90;;;;;;4949557;28;20479;-64
2024/01/24 13:49:12;;;;;;;35.10;7.95;;;;;;;;;;4957141;28;20094;-64
2024/01/24 13:51:38;;;;;;;30.05;7.25;;;;;;;;;;4954489;28;20498;-64
2024/01/24 13:54:05;;;;;;;29.13;7.05;;;;;;;;;;4956803;28;20053;-65
2024/01/24 13:56:31;;;;;;;38.03;8.57;;;10.40;99.90;;;;;;4959314;28;20068;-65
2024/01/24 13:58:57;;;;;;;35.67;7.68;;;;;;;;;;4958676;28;20187;-65
2024/01/24 14:01:23;;;;;;;35.13;7.75;;;;;;;;;;4958774;28;20500;-65
2024/01/24 14:03:49;;;;;;;27.45;6.85;;;;;;;;;;4958783;28;20035;-64
2024/01/24 14:06:17;;;;;;;30.83;9.73;;;;;;;;;;4960270;28;20057;-65
2024/01/24 14:08:43;;;;;;;24.08;6.05;;;;;;;;;;4959294;28;20050;-64
2024/01/24 14:11:10;;;;;;;27.10;6.75;;;;;;;;;;4958781;28;20554;-64